createdAt,value
2023-04-22T00:02:04.155Z,5.45
2023-04-22T00:04:31.072Z,6.50
2023-04-22T00:06:57.892Z,5.05
2023-04-22T00:09:24.464Z,5.10
2023-04-22T00:11:51.855Z,5.35
2023-04-22T00:14:18.736Z,5.20
2023-04-22T00:16:45.476Z,4.75
2023-04-22T00:19:12.630Z,5.32
2023-04-22T00:21:39.270Z,5.28
2023-04-22T00:24:05.984Z,4.28
2023-04-22T00:26:32.647Z,4.70
2023-04-22T00:28:59.225Z,3.97
2023-04-22T00:31:25.979Z,4.65
2023-04-22T00:33:52.652Z,3.97
2023-04-22T00:36:19.226Z,4.25
2023-04-22T00:38:51.097Z,4.20
2023-04-22T00:41:17.944Z,4.53
2023-04-22T00:43:44.894Z,5.05
2023-04-22T00:46:12.020Z,3.95
2023-04-22T00:48:39.204Z,4.60
2023-04-22T00:51:06.410Z,5.28
2023-04-22T00:53:32.992Z,4.35
2023-04-22T00:55:59.924Z,4.43
2023-04-22T00:58:28.841Z,4.60
2023-04-22T01:00:55.635Z,5.07
2023-04-22T01:03:24.341Z,5.22
2023-04-22T01:05:51.230Z,4.20
2023-04-22T01:08:18.136Z,4.50
2023-04-22T01:10:44.706Z,4.07
2023-04-22T01:13:11.263Z,4.70
2023-04-22T01:15:37.917Z,4.78
2023-04-22T01:18:04.675Z,3.85
2023-04-22T01:20:31.895Z,5.18
2023-04-22T01:22:59.847Z,4.57
2023-04-22T01:25:26.691Z,5.05
2023-04-22T01:27:54.098Z,4.50
2023-04-22T01:30:20.926Z,3.90
2023-04-22T01:32:47.801Z,4.25
2023-04-22T01:35:14.472Z,4.55
2023-04-22T01:37:41.195Z,3.70
2023-04-22T01:40:09.388Z,3.72
2023-04-22T01:42:36.259Z,4.93
2023-04-22T01:45:02.941Z,3.78
2023-04-22T01:47:29.615Z,4.80
2023-04-22T01:49:57.264Z,3.65
2023-04-22T01:52:23.901Z,5.07
2023-04-22T01:54:51.134Z,5.50
2023-04-22T01:57:18.006Z,4.10
2023-04-22T01:59:44.670Z,4.40
2023-04-22T02:02:11.305Z,4.47
2023-04-22T02:04:38.018Z,4.03
2023-04-22T02:07:05.071Z,4.80
2023-04-22T02:09:33.535Z,4.25
2023-04-22T02:12:01.254Z,4.28
2023-04-22T02:14:27.891Z,4.22
2023-04-22T02:16:54.486Z,3.70
2023-04-22T02:19:21.109Z,3.53
2023-04-22T02:21:47.693Z,4.47
2023-04-22T02:24:14.250Z,4.35
2023-04-22T02:26:41.519Z,3.55
2023-04-22T02:29:08.350Z,3.67
2023-04-22T02:31:35.000Z,3.15
2023-04-22T02:34:02.169Z,4.47
2023-04-22T02:36:28.899Z,4.05
2023-04-22T02:38:55.755Z,3.58
2023-04-22T02:41:22.658Z,3.38
2023-04-22T02:43:50.055Z,4.57
2023-04-22T02:46:17.372Z,3.80
2023-04-22T02:48:44.006Z,3.33
2023-04-22T02:51:11.008Z,3.47
2023-04-22T02:53:37.574Z,3.50
2023-04-22T02:56:04.192Z,2.85
2023-04-22T02:58:30.819Z,2.88
2023-04-22T03:00:58.006Z,3.10
2023-04-22T03:03:24.778Z,3.47
2023-04-22T03:05:51.535Z,4.03
2023-04-22T03:08:19.405Z,3.80
2023-04-22T03:10:46.926Z,3.58
2023-04-22T03:13:14.307Z,3.83
2023-04-22T03:15:41.636Z,3.58
2023-04-22T03:18:08.619Z,4.22
2023-04-22T03:20:35.677Z,6.03
2023-04-22T03:23:02.987Z,6.43
2023-04-22T03:25:30.193Z,5.03
2023-04-22T03:27:57.581Z,5.30
2023-04-22T03:30:24.844Z,5.70
2023-04-22T03:32:53.576Z,4.85
2023-04-22T03:35:24.645Z,5.97
2023-04-22T03:37:52.233Z,6.05
2023-04-22T03:40:24.687Z,5.68
2023-04-22T03:42:51.348Z,4.75
2023-04-22T03:45:20.566Z,4.95
2023-04-22T03:47:55.308Z,4.75
2023-04-22T03:50:27.922Z,3.95
2023-04-22T03:52:56.620Z,4.10
2023-04-22T03:55:23.246Z,7.07
2023-04-22T03:57:52.539Z,3.63
2023-04-22T04:00:20.252Z,3.92
2023-04-22T04:02:56.549Z,3.78
2023-04-22T04:05:26.820Z,3.75
2023-04-22T04:07:53.681Z,3.42
2023-04-22T04:10:20.308Z,5.13
2023-04-22T04:12:47.985Z,4.45
2023-04-22T04:15:14.619Z,5.30
2023-04-22T04:17:41.501Z,5.63
2023-04-22T04:20:08.839Z,4.65
2023-04-22T04:22:36.386Z,5.55
2023-04-22T04:25:05.383Z,4.93
2023-04-22T04:27:35.778Z,5.63
2023-04-22T04:30:04.118Z,5.25
2023-04-22T04:32:38.967Z,5.97
2023-04-22T04:35:09.155Z,5.18
2023-04-22T04:37:40.315Z,6.30
2023-04-22T04:40:10.422Z,5.18
2023-04-22T04:42:43.742Z,5.22
2023-04-22T04:45:17.640Z,5.15
2023-04-22T04:47:46.226Z,5.35
2023-04-22T04:50:22.583Z,6.15
2023-04-22T04:52:49.898Z,6.70
2023-04-22T04:55:20.292Z,6.85
2023-04-22T04:57:47.398Z,6.25
2023-04-22T05:00:14.930Z,7.22
2023-04-22T05:02:42.561Z,7.65
2023-04-22T05:05:09.570Z,7.25
2023-04-22T05:07:37.785Z,6.03
2023-04-22T05:10:06.999Z,5.03
2023-04-22T05:12:33.696Z,5.30
2023-04-22T05:15:00.880Z,4.82
2023-04-22T05:17:28.853Z,5.60
2023-04-22T05:19:55.592Z,4.57
2023-04-22T05:22:23.564Z,5.18
2023-04-22T05:24:50.343Z,4.28
2023-04-22T05:27:17.147Z,4.05
2023-04-22T05:29:43.919Z,4.35
2023-04-22T05:32:12.229Z,3.95
2023-04-22T05:34:39.281Z,4.82
2023-04-22T05:37:06.109Z,4.15
2023-04-22T05:39:36.036Z,3.28
2023-04-22T05:42:06.234Z,4.03
2023-04-22T05:44:34.007Z,4.50
2023-04-22T05:47:01.024Z,3.70
2023-04-22T05:49:27.641Z,3.70
2023-04-22T05:52:10.174Z,4.20
2023-04-22T05:54:49.172Z,4.40
2023-04-22T05:57:16.028Z,4.93
2023-04-22T05:59:43.091Z,3.90
2023-04-22T06:02:10.280Z,4.55
2023-04-22T06:04:38.008Z,5.10
2023-04-22T06:07:05.904Z,5.45
2023-04-22T06:09:32.473Z,5.25
2023-04-22T06:11:59.187Z,5.10
2023-04-22T06:14:25.889Z,5.13
2023-04-22T06:16:53.428Z,4.40
2023-04-22T06:19:20.128Z,5.43
2023-04-22T06:21:47.336Z,5.68
2023-04-22T06:24:13.978Z,4.85
2023-04-22T06:26:42.260Z,5.88
2023-04-22T06:29:09.091Z,5.95
2023-04-22T06:31:38.616Z,5.57
2023-04-22T06:34:05.870Z,5.38
2023-04-22T06:36:37.179Z,5.20
2023-04-22T06:39:05.738Z,4.40
2023-04-22T06:41:44.666Z,4.22
2023-04-22T06:44:27.419Z,3.55
2023-04-22T06:47:12.671Z,4.43
2023-04-22T06:49:50.257Z,4.70
2023-04-22T06:52:24.222Z,4.60
2023-04-22T06:54:53.339Z,4.85
2023-04-22T06:57:20.260Z,4.00
2023-04-22T06:59:47.148Z,4.95
2023-04-22T07:02:14.964Z,5.57
2023-04-22T07:04:41.833Z,5.68
2023-04-22T07:07:08.528Z,5.53
2023-04-22T07:09:36.211Z,7.10
2023-04-22T07:12:03.051Z,5.95
2023-04-22T07:14:31.609Z,5.93
2023-04-22T07:16:58.708Z,5.28
2023-04-22T07:19:25.479Z,3.83
2023-04-22T07:21:52.115Z,4.47
2023-04-22T07:24:18.703Z,4.97
2023-04-22T07:26:45.276Z,4.88
2023-04-22T07:29:12.981Z,5.97
2023-04-22T07:31:39.569Z,7.00
2023-04-22T07:34:06.211Z,5.13
2023-04-22T07:36:33.159Z,3.25
2023-04-22T07:38:59.728Z,3.25
2023-04-22T07:41:26.369Z,4.18
2023-04-22T07:43:53.102Z,4.07
2023-04-22T07:46:20.035Z,3.40
2023-04-22T07:48:46.717Z,3.08
2023-04-22T07:51:13.273Z,3.78
2023-04-22T07:53:39.841Z,3.13
2023-04-22T07:56:06.692Z,3.20
2023-04-22T07:58:33.298Z,3.72
2023-04-22T08:00:59.943Z,3.83
2023-04-22T08:03:26.987Z,3.58
2023-04-22T08:05:53.609Z,3.40
2023-04-22T08:08:20.509Z,4.25
2023-04-22T08:10:47.080Z,4.15
2023-04-22T08:13:13.983Z,3.47
2023-04-22T08:15:41.242Z,3.88
2023-04-22T08:18:07.913Z,4.40
2023-04-22T08:20:34.563Z,3.28
2023-04-22T08:23:01.115Z,4.28
2023-04-22T08:25:28.085Z,4.35
2023-04-22T08:27:54.714Z,4.72
2023-04-22T08:30:21.458Z,4.10
2023-04-22T08:32:48.337Z,3.33
2023-04-22T08:35:14.935Z,3.45
2023-04-22T08:37:41.858Z,3.25
2023-04-22T08:40:08.901Z,3.40
2023-04-22T08:42:35.777Z,4.13
2023-04-22T08:45:03.394Z,2.80
2023-04-22T08:47:32.758Z,3.30
2023-04-22T08:50:01.945Z,3.42
2023-04-22T08:52:30.425Z,3.28
2023-04-22T08:54:57.011Z,3.50
2023-04-22T08:57:23.909Z,3.17
2023-04-22T08:59:50.566Z,3.10
2023-04-22T09:02:20.001Z,2.75
2023-04-22T09:04:47.755Z,2.90
2023-04-22T09:07:21.355Z,3.65
2023-04-22T09:09:48.627Z,2.60
2023-04-22T09:12:15.305Z,2.38
2023-04-22T09:14:42.009Z,2.33
2023-04-22T09:17:08.664Z,2.63
2023-04-22T09:19:35.210Z,2.00
2023-04-22T09:22:02.121Z,3.25
2023-04-22T09:24:29.463Z,2.55
2023-04-22T09:26:57.904Z,2.15
2023-04-22T09:29:29.898Z,2.33
2023-04-22T09:31:56.669Z,2.08
2023-04-22T09:34:23.375Z,1.95
2023-04-22T09:36:51.387Z,2.42
2023-04-22T09:39:18.334Z,2.03
2023-04-22T09:41:44.896Z,2.38
2023-04-22T09:44:16.316Z,2.10
2023-04-22T09:46:44.039Z,2.33
2023-04-22T09:49:11.053Z,2.50
2023-04-22T09:51:41.793Z,1.70
2023-04-22T09:54:10.462Z,2.30
2023-04-22T09:56:51.798Z,1.70
2023-04-22T09:59:28.245Z,1.92
2023-04-22T10:02:07.199Z,2.10
2023-04-22T10:04:34.602Z,1.58
2023-04-22T10:07:02.798Z,2.17
2023-04-22T10:09:29.419Z,2.00
2023-04-22T10:11:58.985Z,2.55
2023-04-22T10:14:26.145Z,2.08
2023-04-22T10:16:54.676Z,2.20
2023-04-22T10:19:23.140Z,2.13
2023-04-22T10:21:53.724Z,2.33
2023-04-22T10:24:20.835Z,1.67
2023-04-22T10:26:57.982Z,1.77
2023-04-22T10:29:26.057Z,1.85
2023-04-22T10:31:58.241Z,2.05
2023-04-22T10:34:25.221Z,1.63
2023-04-22T10:37:02.230Z,1.45
2023-04-22T10:39:29.326Z,2.20
2023-04-22T10:42:16.173Z,1.55
2023-04-22T10:44:48.877Z,2.75
2023-04-22T10:47:29.158Z,1.88
2023-04-22T10:50:42.279Z,2.10
2023-04-22T10:53:35.246Z,2.33
2023-04-22T10:56:03.150Z,1.98
2023-04-22T10:58:33.745Z,2.05
2023-04-22T11:01:03.087Z,2.22
2023-04-22T11:03:30.680Z,1.75
2023-04-22T11:06:17.082Z,1.85
2023-04-22T11:08:50.206Z,1.83
2023-04-22T11:11:18.484Z,2.15
2023-04-22T11:13:45.581Z,1.88
2023-04-22T11:16:12.454Z,1.80
2023-04-22T11:18:39.052Z,2.05
2023-04-22T11:21:07.232Z,2.20
2023-04-22T11:23:33.809Z,2.47
2023-04-22T11:26:02.472Z,1.50
2023-04-22T11:28:29.217Z,1.58
2023-04-22T11:31:10.317Z,1.83
2023-04-22T11:33:39.119Z,1.50
2023-04-22T11:36:09.886Z,2.28
2023-04-22T11:38:36.473Z,2.17
2023-04-22T11:41:04.919Z,2.22
2023-04-22T11:43:31.704Z,1.85
2023-04-22T11:45:58.401Z,2.00
2023-04-22T11:48:25.253Z,3.28
2023-04-22T11:51:07.935Z,2.47
2023-04-22T11:53:34.497Z,1.83
2023-04-22T11:56:03.680Z,2.00
2023-04-22T11:58:30.585Z,1.80
2023-04-22T12:00:58.727Z,1.77
2023-04-22T12:03:30.055Z,2.03
2023-04-22T12:06:06.129Z,2.25
2023-04-22T12:08:35.532Z,1.85
2023-04-22T12:11:07.474Z,2.53
2023-04-22T12:13:43.912Z,3.38
2023-04-22T12:16:14.398Z,1.73
2023-04-22T12:18:56.442Z,1.58
2023-04-22T12:21:25.105Z,2.15
2023-04-22T12:23:59.710Z,1.75
2023-04-22T12:26:27.868Z,2.58
2023-04-22T12:28:59.070Z,2.00
2023-04-22T12:33:52.912Z,1.80
2023-04-22T12:36:23.354Z,1.80
2023-04-22T12:38:51.053Z,1.88
2023-04-22T12:41:17.627Z,2.30
2023-04-22T12:43:44.346Z,1.90
2023-04-22T12:46:10.992Z,2.05
2023-04-22T12:48:37.850Z,1.80
2023-04-22T12:51:05.185Z,1.75
2023-04-22T12:53:31.820Z,2.78
2023-04-22T12:55:58.422Z,2.20
2023-04-22T12:58:25.813Z,2.22
2023-04-22T13:00:52.365Z,2.28
2023-04-22T13:03:19.087Z,2.22
2023-04-22T13:05:45.763Z,2.03
2023-04-22T13:08:12.432Z,2.00
2023-04-22T13:10:39.004Z,2.20
2023-04-22T13:13:17.754Z,2.00
2023-04-22T13:15:47.479Z,1.90
2023-04-22T13:18:15.499Z,1.83
2023-04-22T13:20:42.637Z,1.65
2023-04-22T13:23:09.725Z,2.13
2023-04-22T13:25:36.596Z,2.50
2023-04-22T13:28:03.322Z,2.35
2023-04-22T13:30:29.943Z,2.00
2023-04-22T13:32:56.548Z,1.77
2023-04-22T13:35:23.128Z,1.88
2023-04-22T13:37:49.698Z,2.45
2023-04-22T13:40:16.556Z,2.85
2023-04-22T13:42:44.383Z,1.90
2023-04-22T13:45:11.012Z,2.25
2023-04-22T13:47:37.640Z,1.85
2023-04-22T13:50:05.936Z,3.47
2023-04-22T13:52:32.755Z,2.50
2023-04-22T13:54:59.341Z,2.17
2023-04-22T13:57:26.102Z,2.15
2023-04-22T13:59:52.745Z,2.25
2023-04-22T14:02:19.367Z,2.25
2023-04-22T14:04:46.026Z,2.45
2023-04-22T14:07:12.785Z,2.42
2023-04-22T14:09:39.477Z,1.73
2023-04-22T14:12:07.468Z,1.73
2023-04-22T14:14:34.075Z,2.17
2023-04-22T14:17:00.723Z,2.40
2023-04-22T14:19:28.914Z,2.22
2023-04-22T14:21:55.970Z,2.10
2023-04-22T14:24:24.146Z,1.83
2023-04-22T14:26:54.189Z,1.60
2023-04-22T14:29:20.937Z,2.70
2023-04-22T14:31:49.720Z,1.83
2023-04-22T14:34:16.852Z,2.05
2023-04-22T14:36:43.935Z,2.22
2023-04-22T14:39:10.526Z,1.92
2023-04-22T14:41:37.076Z,1.85
2023-04-22T14:44:03.647Z,1.98
2023-04-22T14:46:30.477Z,2.15
2023-04-22T14:48:57.142Z,1.90
2023-04-22T14:51:24.865Z,2.15
2023-04-22T14:53:51.550Z,1.83
2023-04-22T14:56:18.117Z,1.92
2023-04-22T14:58:44.855Z,1.85
2023-04-22T15:01:11.480Z,2.30
2023-04-22T15:03:38.457Z,2.25
2023-04-22T15:06:05.429Z,1.92
2023-04-22T15:08:32.000Z,2.65
2023-04-22T15:10:59.739Z,1.92
2023-04-22T15:13:26.495Z,2.17
2023-04-22T15:15:53.155Z,2.08
2023-04-22T15:18:19.825Z,1.70
2023-04-22T15:20:46.390Z,1.67
2023-04-22T15:23:13.060Z,1.98
2023-04-22T15:25:39.706Z,2.20
2023-04-22T15:28:06.371Z,2.55
2023-04-22T15:30:33.021Z,1.73
2023-04-22T15:32:59.648Z,1.90
2023-04-22T15:35:26.251Z,1.67
2023-04-22T15:37:54.182Z,1.75
2023-04-22T15:40:20.859Z,2.22
2023-04-22T15:42:47.507Z,2.70
2023-04-22T15:45:14.096Z,2.20
2023-04-22T15:47:41.286Z,1.88
2023-04-22T15:50:09.669Z,2.17
2023-04-22T15:52:37.925Z,2.97
2023-04-22T15:55:06.022Z,1.75
2023-04-22T15:57:35.035Z,2.17
2023-04-22T16:00:11.102Z,1.92
2023-04-22T16:02:42.892Z,2.08
2023-04-22T16:05:11.334Z,2.78
2023-04-22T16:07:38.004Z,2.42
2023-04-22T16:10:05.215Z,3.00
2023-04-22T16:12:33.489Z,3.15
2023-04-22T16:15:01.092Z,2.88
2023-04-22T16:17:28.060Z,2.88
2023-04-22T16:19:54.952Z,2.60
2023-04-22T16:22:21.550Z,3.58
2023-04-22T16:24:48.148Z,2.13
2023-04-22T16:27:16.939Z,3.00
2023-04-22T16:29:43.926Z,3.83
2023-04-22T16:32:11.016Z,2.63
2023-04-22T16:34:38.400Z,2.92
2023-04-22T16:37:05.418Z,3.10
2023-04-22T16:39:32.012Z,2.63
2023-04-22T16:41:58.863Z,2.45
2023-04-22T16:44:25.647Z,2.40
2023-04-22T16:46:52.247Z,2.90
2023-04-22T16:49:18.907Z,2.85
2023-04-22T16:51:45.658Z,2.08
2023-04-22T16:54:12.322Z,3.20
2023-04-22T16:56:38.885Z,2.42
2023-04-22T16:59:05.459Z,2.47
2023-04-22T17:01:32.087Z,3.13
2023-04-22T17:03:58.886Z,2.40
2023-04-22T17:06:27.919Z,2.42
2023-04-22T17:08:54.526Z,2.95
2023-04-22T17:11:21.927Z,2.75
2023-04-22T17:13:48.589Z,2.42
2023-04-22T17:16:15.419Z,2.53
2023-04-22T17:18:42.466Z,2.10
2023-04-22T17:21:09.267Z,2.38
2023-04-22T17:23:36.429Z,2.75
2023-04-22T17:26:02.961Z,3.08
2023-04-22T17:28:29.587Z,3.38
2023-04-22T17:30:56.141Z,2.80
2023-04-22T17:33:22.935Z,2.88
2023-04-22T17:35:49.510Z,2.25
2023-04-22T17:38:16.123Z,2.83
2023-04-22T17:40:43.638Z,2.53
2023-04-22T17:43:10.288Z,2.92
2023-04-22T17:45:36.841Z,2.47
2023-04-22T17:48:03.432Z,3.08
2023-04-22T17:50:30.090Z,3.03
2023-04-22T17:52:56.691Z,3.08
2023-04-22T17:55:23.410Z,2.90
2023-04-22T17:57:50.017Z,2.25
2023-04-22T18:00:17.982Z,2.72
2023-04-22T18:02:44.768Z,3.05
2023-04-22T18:05:11.448Z,2.50
2023-04-22T18:07:38.034Z,3.00
2023-04-22T18:10:04.810Z,3.13
2023-04-22T18:12:31.419Z,4.00
2023-04-22T18:14:58.313Z,2.92
2023-04-22T18:17:25.063Z,3.83
2023-04-22T18:20:02.744Z,3.00
2023-04-22T18:22:32.924Z,2.92
2023-04-22T18:25:01.805Z,2.97
2023-04-22T18:27:28.652Z,2.90
2023-04-22T18:29:55.236Z,3.03
2023-04-22T18:32:21.820Z,2.85
2023-04-22T18:34:48.398Z,2.70
2023-04-22T18:37:14.996Z,2.88
2023-04-22T18:39:41.588Z,2.95
2023-04-22T18:42:08.190Z,3.00
2023-04-22T18:44:35.268Z,3.20
2023-04-22T18:47:01.832Z,4.10
2023-04-22T18:49:28.379Z,3.47
2023-04-22T18:51:54.943Z,2.65
2023-04-22T18:54:21.518Z,3.25
2023-04-22T18:56:48.286Z,3.20
2023-04-22T18:59:14.882Z,3.03
2023-04-22T19:01:41.548Z,2.97
2023-04-22T19:04:08.334Z,3.20
2023-04-22T19:06:35.475Z,2.58
2023-04-22T19:09:02.185Z,3.58
2023-04-22T19:11:28.738Z,3.38
2023-04-22T19:13:55.608Z,3.25
2023-04-22T19:16:24.270Z,2.50
2023-04-22T19:18:52.335Z,2.88
2023-04-22T19:21:19.762Z,3.05
2023-04-22T19:23:46.980Z,3.65
2023-04-22T19:26:13.782Z,2.55
2023-04-22T19:28:46.919Z,3.17
2023-04-22T19:31:14.573Z,3.40
2023-04-22T19:33:41.333Z,3.10
2023-04-22T19:36:07.954Z,3.17
2023-04-22T19:38:35.037Z,3.10
2023-04-22T19:41:02.172Z,2.80
2023-04-22T19:43:28.918Z,2.75
2023-04-22T19:45:55.479Z,3.15
2023-04-22T19:48:22.293Z,3.50
2023-04-22T19:50:49.054Z,3.00
2023-04-22T19:53:16.190Z,2.97
2023-04-22T19:55:43.106Z,3.38
2023-04-22T19:58:10.593Z,2.72
2023-04-22T20:00:37.373Z,2.58
2023-04-22T20:03:04.307Z,3.10
2023-04-22T20:05:31.166Z,3.33
2023-04-22T20:08:01.325Z,2.97
2023-04-22T20:10:28.023Z,3.28
2023-04-22T20:12:54.956Z,3.30
2023-04-22T20:15:21.732Z,3.70
2023-04-22T20:17:48.663Z,3.47
2023-04-22T20:20:17.450Z,3.72
2023-04-22T20:22:45.756Z,3.80
2023-04-22T20:25:13.884Z,3.88
2023-04-22T20:27:41.153Z,4.22
2023-04-22T20:30:08.627Z,4.75
2023-04-22T20:32:36.402Z,4.10
2023-04-22T20:35:03.937Z,5.88
2023-04-22T20:37:33.902Z,4.63
2023-04-22T20:40:08.255Z,5.82
2023-04-22T20:42:36.801Z,4.95
2023-04-22T20:45:06.991Z,5.00
2023-04-22T20:47:33.793Z,5.15
2023-04-22T20:50:00.602Z,5.78
2023-04-22T20:52:27.523Z,5.95
2023-04-22T20:54:56.668Z,6.45
2023-04-22T20:57:23.667Z,5.80
2023-04-22T20:59:50.304Z,5.03
2023-04-22T21:02:18.394Z,6.20
2023-04-22T21:04:45.412Z,5.32
2023-04-22T21:07:14.133Z,6.32
2023-04-22T21:09:41.488Z,5.40
2023-04-22T21:12:10.351Z,5.00
2023-04-22T21:14:40.230Z,5.88
2023-04-22T21:17:21.310Z,5.85
2023-04-22T21:19:50.042Z,4.93
2023-04-22T21:22:21.541Z,5.85
2023-04-22T21:24:49.558Z,6.90
2023-04-22T21:27:17.631Z,5.90
2023-04-22T21:29:45.034Z,5.07
2023-04-22T21:32:12.311Z,5.75
2023-04-22T21:34:39.239Z,5.07
2023-04-22T21:37:06.988Z,4.13
2023-04-22T21:39:33.983Z,4.22
2023-04-22T21:42:00.642Z,4.40
2023-04-22T21:44:27.564Z,6.70
2023-04-22T21:46:54.101Z,5.38
2023-04-22T21:49:20.736Z,6.00
2023-04-22T21:51:47.857Z,5.15
2023-04-22T21:54:14.417Z,4.88
2023-04-22T21:56:41.037Z,4.68
2023-04-22T21:59:07.614Z,3.92
2023-04-22T22:01:34.183Z,4.38
2023-04-22T22:04:01.047Z,4.03
2023-04-22T22:06:28.505Z,4.00
2023-04-22T22:08:55.909Z,4.40
2023-04-22T22:13:52.003Z,4.10
2023-04-22T22:16:19.129Z,3.53
2023-04-22T22:18:46.533Z,3.10
2023-04-22T22:21:13.125Z,3.20
2023-04-22T22:23:39.745Z,3.22
2023-04-22T22:26:07.655Z,3.63
2023-04-22T22:28:34.224Z,3.47
2023-04-22T22:31:02.418Z,4.03
2023-04-22T22:33:29.449Z,2.97
2023-04-22T22:35:56.097Z,3.28
2023-04-22T22:38:22.701Z,3.13
2023-04-22T22:40:49.288Z,3.35
2023-04-22T22:43:16.123Z,3.05
2023-04-22T22:45:42.735Z,3.25
2023-04-22T22:48:09.565Z,3.17
2023-04-22T22:50:36.221Z,3.58
2023-04-22T22:53:02.875Z,3.10
2023-04-22T22:55:29.425Z,3.13
2023-04-22T22:57:56.030Z,3.08
2023-04-22T23:00:22.581Z,3.10
2023-04-22T23:02:49.466Z,3.65
2023-04-22T23:05:16.119Z,3.90
2023-04-22T23:07:42.691Z,3.00
2023-04-22T23:10:09.801Z,3.72
2023-04-22T23:12:36.389Z,4.05
2023-04-22T23:15:02.994Z,2.92
2023-04-22T23:17:29.614Z,2.95
2023-04-22T23:19:56.387Z,2.88
2023-04-22T23:22:23.299Z,2.63
2023-04-22T23:24:50.082Z,3.35
2023-04-22T23:27:17.428Z,3.03
2023-04-22T23:29:44.538Z,2.83
2023-04-22T23:32:15.209Z,2.80
2023-04-22T23:34:44.849Z,2.90
2023-04-22T23:37:13.534Z,3.20
2023-04-22T23:39:41.852Z,2.75
2023-04-22T23:42:08.478Z,2.88
2023-04-22T23:44:35.772Z,3.10
2023-04-22T23:47:02.878Z,3.30
2023-04-22T23:49:29.607Z,2.80
2023-04-22T23:51:56.675Z,2.53
2023-04-22T23:54:23.488Z,2.97
2023-04-22T23:56:50.258Z,2.28
2023-04-22T23:59:16.923Z,2.35
